Time;durP1;ratioP1;P1;durP2;ratioP2;P2;SDS_P1;SDS_P2;PMS_P1;PMS_P2;Temp;Humidity;BMP_temperature;BMP_pressure;BME280_temperature;BME280_humidity;BME280_pressure;Samples;Min_cycle;Max_cycle;Signal;HPM_P1;HPM_P2
2022/01/12 00:01:14;;;;;;;10.20;4.82;;;9.50;78.90;;;;;;4952440;29;20510;-75
2022/01/12 00:03:41;;;;;;;9.27;5.32;;;9.50;78.80;;;;;;4935126;29;20355;-74
2022/01/12 00:06:07;;;;;;;9.10;5.00;;;9.50;78.70;;;;;;4952247;29;20042;-75
2022/01/12 00:08:33;;;;;;;8.75;5.30;;;9.50;78.80;;;;;;4935197;29;20394;-77
2022/01/12 00:11:01;;;;;;;7.20;4.40;;;9.50;78.80;;;;;;4952165;29;20110;-74
2022/01/12 00:13:27;;;;;;;9.93;5.32;;;9.50;78.90;;;;;;4952090;29;20047;-76
2022/01/12 00:15:52;;;;;;;8.77;5.20;;;9.50;79.00;;;;;;4951680;29;20054;-77
2022/01/12 00:18:18;;;;;;;8.52;4.90;;;9.50;78.90;;;;;;4934671;29;20506;-74
2022/01/12 00:20:44;;;;;;;9.45;4.97;;;9.50;78.90;;;;;;4951848;29;20031;-76
2022/01/12 00:23:10;;;;;;;9.07;5.35;;;9.50;78.90;;;;;;4951917;29;20035;-74
2022/01/12 00:25:57;;;;;;;10.93;5.32;;;9.40;78.70;;;;;;4934979;29;20130;-76
2022/01/12 00:33:53;;;;;;;8.90;4.90;;;9.40;78.60;;;;;;4952009;29;20545;-77
2022/01/12 00:36:19;;;;;;;8.40;5.10;;;9.40;78.50;;;;;;4951889;29;20372;-77
2022/01/12 00:38:45;;;;;;;8.88;5.15;;;9.40;78.50;;;;;;4934569;29;20082;-75
2022/01/12 00:41:10;;;;;;;8.95;5.32;;;9.40;78.50;;;;;;4934196;29;20027;-77
2022/01/12 00:43:40;;;;;;;8.82;5.28;;;9.40;78.50;;;;;;4934388;29;20483;-74
2022/01/12 00:46:05;;;;;;;9.23;5.50;;;9.40;78.50;;;;;;4934385;29;20422;-74
2022/01/12 00:48:31;;;;;;;8.60;5.28;;;9.50;78.50;;;;;;4951638;29;20034;-75
2022/01/12 00:50:59;;;;;;;9.38;5.22;;;9.40;78.30;;;;;;4951037;29;20051;-74
2022/01/12 00:53:24;;;;;;;8.57;4.85;;;9.40;78.30;;;;;;4933440;29;20042;-75
2022/01/12 00:55:50;;;;;;;8.23;5.32;;;9.40;78.50;;;;;;4934363;29;20483;-73
2022/01/12 00:58:16;;;;;;;8.27;4.93;;;9.40;78.60;;;;;;4934263;29;20762;-75
2022/01/12 01:00:41;;;;;;;9.13;5.53;;;9.40;78.60;;;;;;4933774;29;20031;-75
2022/01/12 01:03:08;;;;;;;8.77;4.93;;;9.40;78.60;;;;;;4934180;29;20027;-75
2022/01/12 01:05:34;;;;;;;8.68;5.10;;;9.40;78.70;;;;;;4933927;29;20490;-74
2022/01/12 01:08:01;;;;;;;8.77;4.95;;;9.40;78.60;;;;;;4934108;29;20038;-76
2022/01/12 01:10:45;;;;;;;8.32;4.60;;;9.40;78.60;;;;;;4933244;29;20051;-74
2022/01/12 01:13:15;;;;;;;7.95;4.47;;;9.40;78.40;;;;;;4934088;29;20027;-75
2022/01/12 01:26:25;;;;;;;8.75;5.15;;;9.40;78.30;;;;;;4951379;29;20570;-78
2022/01/12 01:28:50;;;;;;;8.70;4.90;;;9.40;78.30;;;;;;4951215;29;20031;-75
2022/01/12 01:31:16;;;;;;;9.77;5.15;;;9.40;78.50;;;;;;4950442;29;20067;-76
2022/01/12 01:33:42;;;;;;;8.85;5.22;;;9.40;78.60;;;;;;4933996;29;20179;-75
2022/01/12 01:36:07;;;;;;;8.52;4.93;;;9.40;78.70;;;;;;4933787;29;20023;-75
2022/01/12 01:38:33;;;;;;;8.40;4.60;;;9.40;78.90;;;;;;4950741;29;20111;-75
2022/01/12 01:40:59;;;;;;;10.23;5.15;;;9.40;78.90;;;;;;4950606;29;20038;-76
2022/01/12 01:54:13;;;;;;;8.25;4.88;;;9.40;79.00;;;;;;4951040;29;20034;-74
2022/01/12 01:56:39;;;;;;;10.00;4.93;;;9.40;79.10;;;;;;4933577;29;20027;-75
2022/01/12 01:59:05;;;;;;;8.77;4.50;;;9.40;79.10;;;;;;4933364;29;20069;-75
2022/01/12 02:01:31;;;;;;;9.43;5.07;;;9.40;79.20;;;;;;4950302;29;20042;-74
2022/01/12 02:04:01;;;;;;;8.73;4.78;;;9.40;79.30;;;;;;4950574;29;20031;-74
2022/01/12 02:06:27;;;;;;;7.55;4.40;;;9.40;79.30;;;;;;4950412;29;20064;-74
2022/01/12 02:08:53;;;;;;;8.20;4.80;;;9.40;79.40;;;;;;4950555;29;20379;-75
2022/01/12 02:11:25;;;;;;;8.80;4.90;;;9.40;79.50;;;;;;4950143;29;20032;-76
2022/01/12 02:13:50;;;;;;;7.88;4.93;;;9.40;79.40;;;;;;4950342;29;20158;-75
2022/01/12 02:16:19;;;;;;;7.60;4.38;;;9.40;79.30;;;;;;4950505;29;20106;-74
2022/01/12 02:35:45;;;;;;;6.93;4.38;;;9.40;79.20;;;;;;4954278;29;20143;-74
2022/01/12 02:40:55;;;;;;;8.70;4.60;;;9.40;79.30;;;;;;4953646;29;20426;-76
2022/01/12 02:51:34;;;;;;;8.73;4.40;;;9.40;79.50;;;;;;4953856;29;20469;-75
2022/01/12 02:54:00;;;;;;;7.70;4.60;;;9.40;79.50;;;;;;4936729;29;20023;-74
2022/01/12 02:56:33;;;;;;;9.57;4.53;;;9.40;79.50;;;;;;4936171;29;20071;-76
2022/01/12 02:59:00;;;;;;;7.55;4.40;;;9.40;79.60;;;;;;4953866;29;20483;-76
2022/01/12 03:04:01;;;;;;;8.05;4.68;;;9.40;79.70;;;;;;4953672;29;20122;-74
2022/01/12 03:06:31;;;;;;;6.63;4.20;;;9.30;79.70;;;;;;4953532;29;20063;-74
2022/01/12 03:08:57;;;;;;;10.15;4.45;;;9.40;79.70;;;;;;4953217;29;20039;-74
2022/01/12 03:11:23;;;;;;;7.95;4.22;;;9.30;79.60;;;;;;4953164;29;20031;-75
2022/01/12 03:13:50;;;;;;;9.50;4.53;;;9.40;79.60;;;;;;4953148;29;20031;-74
2022/01/12 03:16:19;;;;;;;6.88;4.18;;;9.30;79.50;;;;;;4953331;29;20016;-76
2022/01/12 03:18:49;;;;;;;7.75;4.45;;;9.30;79.40;;;;;;4953364;29;20027;-76
2022/01/12 03:21:18;;;;;;;7.07;4.23;;;9.30;79.20;;;;;;4952914;29;20865;-75
2022/01/12 03:23:43;;;;;;;8.18;4.35;;;9.30;79.10;;;;;;4935850;29;20086;-74
2022/01/12 03:26:09;;;;;;;7.88;4.50;;;9.30;78.90;;;;;;4953077;29;20067;-75
2022/01/12 03:28:38;;;;;;;9.50;4.95;;;9.30;79.00;;;;;;4952825;29;20078;-75
2022/01/12 03:31:13;;;;;;;9.32;5.00;;;9.30;79.00;;;;;;4952652;29;20103;-75
2022/01/12 03:36:27;;;;;;;7.95;4.22;;;9.30;79.10;;;;;;4953032;29;20483;-75
2022/01/12 03:38:53;;;;;;;8.70;4.53;;;9.20;79.10;;;;;;4953064;29;20028;-75
2022/01/12 03:41:19;;;;;;;8.55;4.78;;;9.30;79.30;;;;;;4952333;29;20038;-75
2022/01/12 03:43:45;;;;;;;9.60;4.60;;;9.30;79.40;;;;;;4935671;29;20561;-76
2022/01/12 03:46:13;;;;;;;6.82;4.07;;;9.30;79.30;;;;;;4952653;29;20026;-76
2022/01/12 03:48:38;;;;;;;7.32;4.13;;;9.30;79.10;;;;;;4952786;29;20116;-77
2022/01/12 03:51:04;;;;;;;8.80;4.55;;;9.30;79.00;;;;;;4952201;29;20114;-75
2022/01/12 03:53:30;;;;;;;8.40;4.30;;;9.30;78.80;;;;;;4935549;29;20159;-75
2022/01/12 03:55:55;;;;;;;8.40;4.57;;;9.30;78.80;;;;;;4935573;29;20376;-76
2022/01/12 03:58:21;;;;;;;8.68;4.15;;;9.30;78.70;;;;;;4933623;28;20027;-76
2022/01/12 04:00:46;;;;;;;8.13;4.25;;;9.30;78.70;;;;;;4961298;28;20023;-74
2022/01/12 04:03:14;;;;;;;8.20;4.47;;;9.30;78.80;;;;;;4971763;28;20497;-75
2022/01/12 04:08:18;;;;;;;7.75;4.60;;;9.30;78.90;;;;;;4971541;28;20157;-75
2022/01/12 04:08:25;;;;;;;9.05;4.85;;;9.30;79.00;;;;;;4971638;28;20379;-75
2022/01/12 04:11:00;;;;;;;8.50;4.85;;;9.30;79.10;;;;;;4953859;28;20022;-76
2022/01/12 04:13:28;;;;;;;8.65;4.38;;;9.30;79.20;;;;;;4954313;28;20478;-79
2022/01/12 04:15:57;;;;;;;8.57;4.50;;;9.30;79.20;;;;;;4954231;28;20030;-75
2022/01/12 04:18:23;;;;;;;8.43;4.20;;;9.30;79.20;;;;;;4954108;28;20113;-75
2022/01/12 04:20:50;;;;;;;7.75;4.63;;;9.30;79.20;;;;;;4953833;28;20137;-75
2022/01/12 04:23:18;;;;;;;7.72;4.50;;;9.30;79.20;;;;;;4953881;28;20054;-76
2022/01/12 04:25:49;;;;;;;7.85;4.55;;;9.30;79.20;;;;;;4971028;28;20030;-74
2022/01/12 04:28:16;;;;;;;7.30;4.33;;;9.30;79.10;;;;;;4971277;28;20058;-74
2022/01/12 04:30:43;;;;;;;7.15;4.22;;;9.30;79.10;;;;;;4953699;28;20030;-75
2022/01/12 04:33:09;;;;;;;9.18;4.55;;;9.30;78.90;;;;;;4953827;28;20029;-76
2022/01/12 04:35:39;;;;;;;8.25;4.50;;;9.30;78.80;;;;;;4953938;28;20034;-76
2022/01/12 04:38:05;;;;;;;41.58;6.80;;;9.30;78.60;;;;;;4953860;28;20030;-75
2022/01/12 04:40:32;;;;;;;15.48;4.80;;;9.30;78.40;;;;;;4970724;28;20034;-74
2022/01/12 04:42:58;;;;;;;12.45;4.55;;;9.30;78.50;;;;;;4953502;28;20026;-75
2022/01/12 04:50:23;;;;;;;9.27;4.78;;;9.30;78.30;;;;;;4970955;28;20031;-75
2022/01/12 04:52:50;;;;;;;10.40;5.00;;;9.30;78.30;;;;;;4953278;28;20039;-75
2022/01/12 04:55:16;;;;;;;8.52;4.60;;;9.30;78.40;;;;;;4953325;28;20404;-74
2022/01/12 04:57:42;;;;;;;10.68;4.72;;;9.30;78.60;;;;;;4953495;28;20023;-75
2022/01/12 05:00:15;;;;;;;9.45;4.75;;;9.30;78.80;;;;;;4970475;28;20065;-74
2022/01/12 05:13:44;;;;;;;11.93;5.40;;;9.30;79.50;;;;;;4970954;28;20281;-75
2022/01/12 05:16:10;;;;;;;8.18;4.50;;;9.30;79.60;;;;;;4969767;28;20030;-75
2022/01/12 05:18:37;;;;;;;8.10;4.80;;;9.20;79.70;;;;;;4953215;28;20074;-75
2022/01/12 05:21:03;;;;;;;7.53;4.72;;;9.30;79.60;;;;;;4952561;28;20626;-76
2022/01/12 05:23:29;;;;;;;7.95;4.80;;;9.20;79.40;;;;;;4970246;28;20031;-75
2022/01/12 05:25:55;;;;;;;7.95;4.90;;;9.30;79.50;;;;;;4970103;28;20019;-75
2022/01/12 05:28:22;;;;;;;9.88;4.43;;;9.30;79.50;;;;;;4952906;28;20129;-75
2022/01/12 05:30:49;;;;;;;8.55;4.95;;;9.30;79.50;;;;;;4952338;28;20702;-75
2022/01/12 05:33:16;;;;;;;8.20;5.05;;;9.20;79.40;;;;;;4970168;28;20081;-74
2022/01/12 05:35:42;;;;;;;8.43;4.82;;;9.30;79.50;;;;;;4970235;28;20030;-74
2022/01/12 05:38:11;;;;;;;8.40;4.95;;;9.20;79.50;;;;;;4969840;28;20023;-75
2022/01/12 05:40:37;;;;;;;11.05;5.50;;;9.20;79.50;;;;;;4963218;28;20023;-76
2022/01/12 05:43:03;;;;;;;8.30;4.97;;;9.20;79.50;;;;;;4952494;29;20032;-76
2022/01/12 05:45:32;;;;;;;9.48;5.20;;;9.30;79.60;;;;;;4931880;28;20148;-76
2022/01/12 05:50:25;;;;;;;10.50;5.80;;;9.20;79.40;;;;;;4933651;29;20043;-77
2022/01/12 05:52:51;;;;;;;9.88;5.65;;;9.20;79.40;;;;;;4932211;29;20094;-77
2022/01/12 05:55:17;;;;;;;10.52;6.30;;;9.20;79.30;;;;;;4932366;29;20028;-76
2022/01/12 05:57:42;;;;;;;9.52;6.18;;;9.30;79.30;;;;;;4934154;29;20038;-76
2022/01/12 06:00:12;;;;;;;10.35;6.47;;;9.20;79.30;;;;;;4944318;28;20435;-77
2022/01/12 06:02:38;;;;;;;9.15;6.20;;;9.20;79.30;;;;;;4955979;28;20039;-75
2022/01/12 06:05:04;;;;;;;9.38;6.35;;;9.20;79.30;;;;;;4960444;28;20086;-77
2022/01/12 06:07:30;;;;;;;11.00;6.90;;;9.20;79.20;;;;;;4935256;29;20098;-77
2022/01/12 06:09:56;;;;;;;11.32;6.50;;;9.20;79.20;;;;;;4952892;29;20027;-75
2022/01/12 06:12:22;;;;;;;13.15;7.10;;;9.20;78.60;;;;;;4951541;28;20031;-78
2022/01/12 06:14:47;;;;;;;17.75;6.85;;;9.20;78.50;;;;;;4932716;29;20126;-76
2022/01/12 06:17:13;;;;;;;12.10;6.82;;;9.30;79.00;;;;;;4934004;29;20131;-78
2022/01/12 06:19:39;;;;;;;11.43;7.13;;;9.30;79.00;;;;;;4934451;29;20024;-77
2022/01/12 06:22:05;;;;;;;12.93;6.57;;;9.30;79.10;;;;;;4929018;29;20028;-80
2022/01/12 06:24:31;;;;;;;10.65;6.95;;;9.30;79.20;;;;;;4932819;29;20506;-76
2022/01/12 06:26:59;;;;;;;10.73;7.00;;;9.20;78.50;;;;;;4916744;29;20255;-76
2022/01/12 06:29:38;;;;;;;12.77;7.05;;;9.20;78.80;;;;;;4916725;29;20062;-76
2022/01/12 06:32:04;;;;;;;11.73;7.45;;;9.20;79.10;;;;;;4916575;29;20059;-76
2022/01/12 06:34:29;;;;;;;14.05;6.78;;;9.20;78.50;;;;;;4932326;29;20032;-79
2022/01/12 06:36:55;;;;;;;12.50;6.97;;;9.20;78.70;;;;;;4932604;29;20066;-76
2022/01/12 06:39:23;;;;;;;11.85;7.43;;;9.20;78.90;;;;;;4933372;29;20036;-75
2022/01/12 06:41:50;;;;;;;11.05;7.53;;;9.20;79.00;;;;;;4916245;29;20038;-76
2022/01/12 06:44:17;;;;;;;10.95;7.20;;;9.20;79.20;;;;;;4932412;29;20031;-76
2022/01/12 06:46:44;;;;;;;11.35;7.32;;;9.20;79.20;;;;;;4933707;29;20034;-76
2022/01/12 06:49:11;;;;;;;12.07;7.85;;;9.20;79.20;;;;;;4933452;29;20655;-76
2022/01/12 06:51:37;;;;;;;13.93;8.57;;;9.20;79.20;;;;;;4916112;29;20046;-79
2022/01/12 06:54:04;;;;;;;12.10;8.32;;;9.20;79.20;;;;;;4916392;29;20027;-75
2022/01/12 06:56:29;;;;;;;12.25;7.57;;;9.20;79.20;;;;;;4916053;29;20033;-75
2022/01/12 06:58:55;;;;;;;11.95;7.78;;;9.20;79.20;;;;;;4935015;29;20035;-76
2022/01/12 07:01:21;;;;;;;13.38;8.25;;;9.20;79.30;;;;;;4952037;29;20042;-78
2022/01/12 07:03:47;;;;;;;14.35;7.85;;;9.20;79.20;;;;;;4952259;29;20027;-75
2022/01/12 07:06:12;;;;;;;13.13;8.15;;;9.20;79.20;;;;;;4935102;29;20039;-79
2022/01/12 07:08:38;;;;;;;12.25;7.97;;;9.20;79.30;;;;;;4932532;29;20040;-80
2022/01/12 07:11:04;;;;;;;11.77;8.00;;;9.20;79.30;;;;;;4937717;29;20055;-75
2022/01/12 07:13:29;;;;;;;12.55;8.05;;;9.20;79.40;;;;;;4938437;29;20034;-76
2022/01/12 07:15:55;;;;;;;12.52;8.13;;;9.20;79.50;;;;;;4937877;29;20028;-75
2022/01/12 07:18:23;;;;;;;14.55;8.85;;;9.20;79.50;;;;;;4938487;29;20114;-75
2022/01/12 07:20:49;;;;;;;14.48;8.57;;;9.20;79.60;;;;;;4937981;29;20118;-74
2022/01/12 07:23:14;;;;;;;12.48;8.15;;;9.20;80.20;;;;;;4937865;29;20129;-82
2022/01/12 07:25:40;;;;;;;12.00;8.50;;;9.20;79.70;;;;;;4938135;29;20186;-77
2022/01/12 07:28:06;;;;;;;13.35;8.95;;;9.20;79.80;;;;;;4955031;29;20031;-78
2022/01/12 07:30:31;;;;;;;12.25;8.43;;;9.20;79.80;;;;;;4937057;29;20119;-74
2022/01/12 07:32:57;;;;;;;14.20;8.90;;;9.20;79.90;;;;;;4925291;29;20043;-76
2022/01/12 07:35:22;;;;;;;12.10;8.25;;;9.20;80.10;;;;;;4955083;29;20065;-75
2022/01/12 07:37:48;;;;;;;13.90;8.93;;;9.20;80.20;;;;;;4955219;29;20042;-76
2022/01/12 07:40:14;;;;;;;13.82;8.75;;;9.20;80.20;;;;;;4937723;29;20482;-74
2022/01/12 07:42:39;;;;;;;14.13;9.00;;;9.20;80.20;;;;;;4954370;29;20031;-77
2022/01/12 07:45:05;;;;;;;15.10;9.43;;;9.20;80.30;;;;;;4937961;29;20037;-76
2022/01/12 07:47:32;;;;;;;14.70;9.57;;;9.20;80.30;;;;;;4954667;29;20479;-77
2022/01/12 07:49:59;;;;;;;14.70;9.15;;;9.20;80.40;;;;;;4937471;29;20122;-76
2022/01/12 07:52:26;;;;;;;14.60;9.43;;;9.20;80.40;;;;;;4937089;29;20035;-77
2022/01/12 07:54:52;;;;;;;13.70;8.77;;;9.20;80.40;;;;;;4938427;29;20027;-80
2022/01/12 07:57:18;;;;;;;13.13;8.82;;;9.20;80.50;;;;;;4937823;29;20024;-77
2022/01/12 07:59:43;;;;;;;14.38;9.48;;;9.20;80.60;;;;;;4954716;29;20564;-77
2022/01/12 08:02:10;;;;;;;15.15;10.07;;;9.20;80.60;;;;;;4937425;29;20110;-78
2022/01/12 08:04:36;;;;;;;14.23;9.75;;;9.20;80.70;;;;;;4954738;29;20019;-75
2022/01/12 08:07:03;;;;;;;13.55;9.32;;;9.10;80.70;;;;;;4954621;29;20602;-81
2022/01/12 08:09:29;;;;;;;13.00;8.75;;;9.20;80.80;;;;;;4954824;29;20410;-77
2022/01/12 08:11:54;;;;;;;13.48;9.32;;;9.20;80.80;;;;;;4954446;29;20039;-76
2022/01/12 08:14:20;;;;;;;14.75;9.55;;;9.20;80.80;;;;;;4954965;29;20133;-77
2022/01/12 08:16:45;;;;;;;13.73;8.95;;;9.20;80.80;;;;;;4937392;29;20024;-76
2022/01/12 08:19:11;;;;;;;15.77;10.13;;;9.20;80.80;;;;;;4953863;28;20023;-77
2022/01/12 08:21:37;;;;;;;15.52;9.60;;;9.20;80.80;;;;;;4936997;29;20082;-78
2022/01/12 08:24:02;;;;;;;15.80;9.93;;;9.20;80.90;;;;;;4954279;29;20042;-79
2022/01/12 08:26:28;;;;;;;14.57;9.45;;;9.20;80.90;;;;;;4954178;29;20480;-77
2022/01/12 08:28:53;;;;;;;15.77;9.63;;;9.20;81.10;;;;;;4954393;29;20035;-76
2022/01/12 08:31:22;;;;;;;13.00;9.18;;;9.20;81.10;;;;;;4936423;29;20027;-77
2022/01/12 08:33:48;;;;;;;15.98;10.00;;;9.20;81.20;;;;;;4937285;29;20027;-77
2022/01/12 08:36:15;;;;;;;17.05;10.32;;;9.20;81.10;;;;;;4936990;29;20383;-81
2022/01/12 08:38:41;;;;;;;15.63;10.27;;;9.20;81.10;;;;;;4936906;29;20027;-77
2022/01/12 08:41:07;;;;;;;16.10;9.50;;;9.20;81.20;;;;;;4936455;29;20028;-78
2022/01/12 08:43:33;;;;;;;16.00;10.25;;;9.20;81.30;;;;;;4936962;29;20105;-77
2022/01/12 08:45:58;;;;;;;16.02;10.13;;;9.20;81.20;;;;;;4954018;29;20066;-78
2022/01/12 08:48:24;;;;;;;16.02;10.50;;;9.20;81.20;;;;;;4936870;29;20056;-78
2022/01/12 08:50:49;;;;;;;16.25;10.20;;;9.20;81.20;;;;;;4936243;29;20518;-77
2022/01/12 08:53:15;;;;;;;17.13;11.00;;;9.20;81.30;;;;;;4953317;29;20082;-77
2022/01/12 08:55:41;;;;;;;17.17;10.57;;;9.20;81.30;;;;;;4951628;29;20031;-77
2022/01/12 08:58:06;;;;;;;15.93;10.45;;;9.10;81.20;;;;;;4951091;29;20098;-78
2022/01/12 09:00:32;;;;;;;19.20;11.10;;;9.20;81.30;;;;;;4934249;29;20706;-77
2022/01/12 09:02:58;;;;;;;16.30;10.45;;;9.20;81.30;;;;;;4951462;29;20106;-76
2022/01/12 09:05:24;;;;;;;17.23;10.68;;;9.20;81.30;;;;;;4934398;29;20023;-77
2022/01/12 09:07:49;;;;;;;18.00;10.77;;;9.20;81.30;;;;;;4934201;29;20031;-76
2022/01/12 09:10:15;;;;;;;16.90;10.95;;;9.20;81.80;;;;;;4951457;29;20514;-78
2022/01/12 09:12:41;;;;;;;16.70;9.98;;;9.20;81.90;;;;;;4933749;29;20514;-77
2022/01/12 09:15:08;;;;;;;16.08;11.02;;;9.20;81.40;;;;;;4951322;29;20446;-77
2022/01/12 09:17:34;;;;;;;17.15;10.75;;;9.20;81.50;;;;;;4951128;29;20034;-76
2022/01/12 09:20:00;;;;;;;18.45;11.13;;;9.20;82.00;;;;;;4951479;29;20031;-77
2022/01/12 09:22:26;;;;;;;17.77;10.75;;;9.20;81.60;;;;;;4950725;29;20419;-76
2022/01/12 09:24:52;;;;;;;18.00;11.18;;;9.10;81.60;;;;;;4934104;29;20031;-77
2022/01/12 09:27:18;;;;;;;16.40;11.05;;;9.20;81.60;;;;;;4933668;29;20027;-78
2022/01/12 09:29:45;;;;;;;20.02;11.43;;;9.10;81.60;;;;;;4951196;29;20023;-77
2022/01/12 09:32:10;;;;;;;16.92;11.32;;;9.10;81.60;;;;;;4950214;28;20035;-77
2022/01/12 09:34:36;;;;;;;18.02;11.35;;;9.20;81.70;;;;;;4934021;29;20030;-77
2022/01/12 09:37:02;;;;;;;17.95;11.45;;;9.20;81.80;;;;;;4950814;29;20081;-76
2022/01/12 09:39:27;;;;;;;19.73;10.95;;;9.10;81.60;;;;;;4950873;29;20684;-77
2022/01/12 09:41:53;;;;;;;18.02;10.75;;;9.20;81.60;;;;;;4950644;29;20039;-76
2022/01/12 09:44:19;;;;;;;19.10;11.43;;;9.10;81.50;;;;;;4933782;29;20031;-78
2022/01/12 09:46:44;;;;;;;18.70;10.95;;;9.10;81.50;;;;;;4950836;29;20118;-79
2022/01/12 09:49:11;;;;;;;23.80;12.23;;;9.20;81.60;;;;;;4933589;29;20024;-78
2022/01/12 09:51:37;;;;;;;28.20;12.55;;;9.20;81.40;;;;;;4933243;29;20043;-77
2022/01/12 09:54:03;;;;;;;23.98;11.93;;;9.20;81.40;;;;;;4950760;29;20039;-77
2022/01/12 09:56:30;;;;;;;25.25;12.88;;;9.20;81.50;;;;;;4950689;29;20521;-80
2022/01/12 09:58:59;;;;;;;21.65;12.07;;;9.10;81.50;;;;;;4950820;29;20055;-77
2022/01/12 10:01:39;;;;;;;19.83;11.68;;;9.10;81.50;;;;;;4933250;29;20109;-77
2022/01/12 10:04:19;;;;;;;26.63;12.32;;;9.20;81.60;;;;;;4934154;29;20023;-77
2022/01/12 10:06:47;;;;;;;23.10;12.40;;;9.20;81.50;;;;;;4935691;29;20031;-79
2022/01/12 10:09:21;;;;;;;23.55;12.80;;;9.20;81.50;;;;;;4934163;28;20031;-77
2022/01/12 10:12:00;;;;;;;27.17;13.45;;;9.20;81.40;;;;;;4935109;29;20121;-77
2022/01/12 10:14:41;;;;;;;21.08;12.50;;;9.20;81.50;;;;;;4952934;29;20751;-78
2022/01/12 10:17:08;;;;;;;22.52;12.93;;;9.20;81.50;;;;;;4952664;29;20106;-77
2022/01/12 10:19:34;;;;;;;21.77;12.35;;;9.10;81.50;;;;;;4935702;29;20608;-76
2022/01/12 10:22:05;;;;;;;20.33;12.75;;;9.20;81.60;;;;;;4935173;29;20482;-77
2022/01/12 10:24:36;;;;;;;25.98;14.00;;;9.10;81.50;;;;;;4935200;29;20391;-78
2022/01/12 10:27:19;;;;;;;23.20;14.20;;;9.10;81.50;;;;;;4933623;29;20118;-76
2022/01/12 10:29:54;;;;;;;22.48;13.18;;;9.20;81.50;;;;;;4933123;29;20487;-76
2022/01/12 10:32:20;;;;;;;24.08;14.63;;;9.20;81.40;;;;;;4949868;29;20121;-78
2022/01/12 10:34:48;;;;;;;24.25;14.00;;;9.20;81.40;;;;;;4933364;29;20521;-77
2022/01/12 10:37:22;;;;;;;25.63;14.75;;;9.20;81.40;;;;;;4950338;29;20031;-78
2022/01/12 10:39:49;;;;;;;24.50;13.73;;;9.20;81.50;;;;;;4932885;29;20027;-80
2022/01/12 10:42:24;;;;;;;21.98;14.23;;;9.20;81.60;;;;;;4932884;29;20038;-77
2022/01/12 10:44:52;;;;;;;22.42;13.60;;;9.20;81.60;;;;;;4953774;29;20695;-77
2022/01/12 10:47:27;;;;;;;25.90;14.20;;;9.20;81.70;;;;;;4953250;29;20031;-78
2022/01/12 10:49:52;;;;;;;26.67;14.43;;;9.10;81.70;;;;;;4936591;29;20027;-76
2022/01/12 10:52:18;;;;;;;24.67;14.23;;;9.20;81.70;;;;;;4953573;29;20042;-77
2022/01/12 10:55:05;;;;;;;22.73;13.73;;;9.20;81.80;;;;;;4936579;29;20027;-76
2022/01/12 10:57:34;;;;;;;23.02;13.63;;;9.20;81.80;;;;;;4936515;29;20024;-78
2022/01/12 11:00:21;;;;;;;25.38;13.93;;;9.10;81.80;;;;;;4936501;29;20031;-76
2022/01/12 11:02:59;;;;;;;21.83;13.90;;;9.20;81.90;;;;;;4953326;29;20070;-78
2022/01/12 11:05:27;;;;;;;19.48;12.90;;;9.20;81.90;;;;;;4953374;29;20059;-77
2022/01/12 11:07:54;;;;;;;22.05;13.40;;;9.20;82.00;;;;;;4953534;29;20585;-78
2022/01/12 11:10:20;;;;;;;20.90;13.02;;;9.20;82.00;;;;;;4953189;29;20071;-77
2022/01/12 11:12:49;;;;;;;20.73;13.07;;;9.10;82.00;;;;;;4936066;29;20034;-77
2022/01/12 11:15:16;;;;;;;24.55;14.55;;;9.20;82.10;;;;;;4953436;29;20434;-78
2022/01/12 11:17:44;;;;;;;23.30;13.98;;;9.10;82.10;;;;;;4953518;29;20497;-77
2022/01/12 11:20:15;;;;;;;22.30;14.07;;;9.20;82.10;;;;;;4936195;29;20035;-76
2022/01/12 11:22:44;;;;;;;20.17;13.43;;;9.20;82.10;;;;;;4952888;29;20038;-77
2022/01/12 11:25:23;;;;;;;21.55;13.35;;;9.20;82.20;;;;;;4953257;29;20051;-78
2022/01/12 11:27:51;;;;;;;20.33;13.65;;;9.20;82.30;;;;;;4953183;29;20039;-78
2022/01/12 11:30:21;;;;;;;21.05;13.40;;;9.10;82.20;;;;;;4936011;29;20037;-77
2022/01/12 11:32:58;;;;;;;22.30;14.20;;;9.20;82.40;;;;;;4935774;29;20095;-78
2022/01/12 11:35:33;;;;;;;21.67;14.07;;;9.10;82.40;;;;;;4953200;29;20485;-79
2022/01/12 11:38:00;;;;;;;21.15;13.93;;;9.20;82.50;;;;;;4935670;29;20368;-78
2022/01/12 11:40:37;;;;;;;23.88;14.65;;;9.20;82.50;;;;;;4935750;29;20027;-75
2022/01/12 11:43:05;;;;;;;25.85;14.70;;;9.20;82.60;;;;;;4952922;29;20059;-78
2022/01/12 11:45:31;;;;;;;22.27;14.43;;;9.20;82.50;;;;;;4935781;29;20070;-79
2022/01/12 11:47:57;;;;;;;23.42;14.30;;;9.20;82.50;;;;;;4952890;29;20090;-77
2022/01/12 11:50:22;;;;;;;22.08;13.88;;;9.20;82.40;;;;;;4952617;29;20058;-77
2022/01/12 11:52:48;;;;;;;24.45;15.05;;;9.20;82.40;;;;;;4935404;29;20039;-77
2022/01/12 11:55:17;;;;;;;23.08;14.10;;;9.20;82.50;;;;;;4935452;29;20019;-76
2022/01/12 11:57:48;;;;;;;21.02;13.73;;;9.20;82.40;;;;;;4935337;29;20059;-79
2022/01/12 12:00:23;;;;;;;23.17;14.85;;;9.20;82.30;;;;;;4952340;29;20023;-75
2022/01/12 12:02:51;;;;;;;23.23;14.15;;;9.20;82.20;;;;;;4935028;29;20035;-77
2022/01/12 12:05:28;;;;;;;24.00;14.55;;;9.20;82.10;;;;;;4935284;29;20023;-76
2022/01/12 12:07:58;;;;;;;22.63;14.90;;;9.20;82.00;;;;;;4952439;29;20039;-79
2022/01/12 12:10:26;;;;;;;22.65;14.23;;;9.20;81.80;;;;;;4952395;29;20776;-77
2022/01/12 12:12:53;;;;;;;24.55;14.30;;;9.40;81.90;;;;;;4952338;29;20047;-76
2022/01/12 12:15:19;;;;;;;23.88;13.70;;;9.40;81.70;;;;;;4952201;29;20461;-76
2022/01/12 12:17:45;;;;;;;23.75;14.70;;;9.40;81.50;;;;;;4935222;29;20019;-77
2022/01/12 12:20:16;;;;;;;21.77;13.75;;;9.50;81.30;;;;;;4934881;29;20039;-76
2022/01/12 12:22:44;;;;;;;22.30;13.93;;;9.60;81.50;;;;;;4934870;29;20031;-75
2022/01/12 12:25:17;;;;;;;23.45;14.63;;;9.70;80.80;;;;;;4935080;29;20027;-77
2022/01/12 12:27:45;;;;;;;23.05;14.55;;;9.70;80.60;;;;;;4935075;29;20066;-76
2022/01/12 12:30:13;;;;;;;23.15;14.80;;;9.70;80.30;;;;;;4952025;29;20050;-77
2022/01/12 12:32:50;;;;;;;22.60;13.63;;;9.70;80.40;;;;;;4934589;29;20035;-77
2022/01/12 12:35:25;;;;;;;22.75;13.90;;;9.70;80.40;;;;;;4934552;29;20090;-75
2022/01/12 12:37:55;;;;;;;24.38;14.75;;;9.70;80.30;;;;;;4934991;29;20110;-76
2022/01/12 12:40:33;;;;;;;22.23;13.65;;;9.70;80.40;;;;;;4934778;29;20027;-77
2022/01/12 12:43:24;;;;;;;24.63;14.82;;;9.70;80.20;;;;;;4934625;29;20118;-77
2022/01/12 12:45:59;;;;;;;22.63;14.95;;;9.70;80.10;;;;;;4934293;29;20058;-78
2022/01/12 12:48:35;;;;;;;23.25;14.65;;;9.70;80.20;;;;;;4951849;29;20122;-79
2022/01/12 12:51:12;;;;;;;22.42;14.73;;;9.60;80.20;;;;;;4951477;29;20031;-77
2022/01/12 12:53:45;;;;;;;24.33;13.98;;;9.60;80.30;;;;;;4951797;29;20034;-76
2022/01/12 12:56:14;;;;;;;21.98;13.80;;;9.60;80.30;;;;;;4951535;29;20023;-78
2022/01/12 12:58:43;;;;;;;21.98;14.18;;;9.60;80.40;;;;;;4951468;29;20023;-76
2022/01/12 13:01:11;;;;;;;23.20;14.52;;;9.60;80.60;;;;;;4933989;29;20300;-76
2022/01/12 13:03:39;;;;;;;22.95;14.40;;;9.60;80.60;;;;;;4934103;29;20118;-77
2022/01/12 13:06:06;;;;;;;25.23;15.63;;;9.60;80.70;;;;;;4933742;29;20032;-78
2022/01/12 13:08:31;;;;;;;24.15;14.65;;;9.60;80.70;;;;;;4951452;29;20027;-76
2022/01/12 13:11:06;;;;;;;23.73;15.05;;;9.60;80.70;;;;;;4933888;29;20039;-77
2022/01/12 13:13:31;;;;;;;20.27;13.85;;;9.60;80.70;;;;;;4933559;29;20380;-77
2022/01/12 13:15:58;;;;;;;22.40;13.90;;;9.60;80.80;;;;;;4933919;29;20073;-76
2022/01/12 13:18:24;;;;;;;23.63;14.70;;;9.60;80.70;;;;;;4951238;29;20039;-78
2022/01/12 13:21:09;;;;;;;23.48;15.00;;;9.60;80.70;;;;;;4950767;29;20162;-76
2022/01/12 13:24:01;;;;;;;23.70;14.93;;;9.60;80.80;;;;;;4951219;29;20558;-78
2022/01/12 13:26:33;;;;;;;24.75;15.43;;;9.70;80.70;;;;;;4932838;29;20070;-76
2022/01/12 13:29:04;;;;;;;23.80;14.73;;;9.70;80.50;;;;;;4934109;29;20031;-76
2022/01/12 13:31:30;;;;;;;25.00;15.57;;;9.70;80.50;;;;;;4950450;29;20773;-76
2022/01/12 13:33:58;;;;;;;22.98;15.23;;;9.70;80.50;;;;;;4933968;29;20024;-76
2022/01/12 13:36:24;;;;;;;24.27;15.30;;;9.70;80.50;;;;;;4950809;29;20034;-76
2022/01/12 13:39:08;;;;;;;23.30;14.95;;;9.60;80.40;;;;;;4933705;29;20027;-77
2022/01/12 13:41:36;;;;;;;21.13;14.45;;;9.70;80.50;;;;;;4950524;29;20487;-76
2022/01/12 13:44:16;;;;;;;24.40;15.73;;;9.70;80.40;;;;;;4933602;29;20879;-76
2022/01/12 13:47:00;;;;;;;23.13;14.55;;;9.60;80.40;;;;;;4950903;29;20119;-80
2022/01/12 13:49:25;;;;;;;23.55;15.25;;;9.70;80.50;;;;;;4951023;29;20030;-77
2022/01/12 13:52:05;;;;;;;24.45;15.35;;;9.70;80.60;;;;;;4950297;29;20031;-78
2022/01/12 13:54:42;;;;;;;25.25;14.38;;;9.60;80.50;;;;;;4950781;29;20402;-77
2022/01/12 13:57:10;;;;;;;23.48;14.68;;;9.60;80.60;;;;;;4950712;29;20055;-79
2022/01/12 13:59:50;;;;;;;24.35;15.18;;;9.60;80.60;;;;;;4934077;29;20502;-78
2022/01/12 14:02:21;;;;;;;22.67;15.40;;;9.60;80.60;;;;;;4930781;29;20525;-75
2022/01/12 14:04:58;;;;;;;25.13;15.13;;;9.70;80.70;;;;;;4950455;29;20447;-78
2022/01/12 14:07:29;;;;;;;23.63;14.60;;;9.70;80.60;;;;;;4932473;29;20031;-79
2022/01/12 14:09:56;;;;;;;20.83;13.73;;;9.70;80.60;;;;;;4950800;29;20027;-78